sensor_id;sensor_type;location;lat;lon;timestamp;P1;durP1;ratioP1;P2;durP2;ratioP2
31091;SDS011;17747;51.070;10.930;2022-08-19T00:00:41;1242.30;;;999.90;;
31091;SDS011;17747;51.070;10.930;2022-08-19T00:01:42;1238.40;;;999.90;;
31091;SDS011;17747;51.070;10.930;2022-08-19T00:02:44;1238.32;;;999.90;;
31091;SDS011;17747;51.070;10.930;2022-08-19T00:03:45;1244.47;;;999.90;;
31091;SDS011;17747;51.070;10.930;2022-08-19T00:04:47;1253.50;;;999.90;;
31091;SDS011;17747;51.070;10.930;2022-08-19T00:05:53;1238.75;;;999.90;;
31091;SDS011;17747;51.070;10.930;2022-08-19T00:06:55;1236.30;;;999.90;;
31091;SDS011;17747;51.070;10.930;2022-08-19T00:07:55;1235.03;;;999.90;;
31091;SDS011;17747;51.070;10.930;2022-08-19T00:08:57;1234.38;;;999.90;;
31091;SDS011;17747;51.070;10.930;2022-08-19T00:10:00;1240.28;;;999.90;;
31091;SDS011;17747;51.070;10.930;2022-08-19T00:11:01;1239.82;;;999.90;;
31091;SDS011;17747;51.070;10.930;2022-08-19T00:12:02;1237.97;;;999.90;;
31091;SDS011;17747;51.070;10.930;2022-08-19T00:13:04;1235.55;;;999.90;;
31091;SDS011;17747;51.070;10.930;2022-08-19T00:14:05;1241.25;;;999.90;;
31091;SDS011;17747;51.070;10.930;2022-08-19T00:15:10;1238.43;;;999.90;;
31091;SDS011;17747;51.070;10.930;2022-08-19T00:16:12;1236.53;;;999.90;;
31091;SDS011;17747;51.070;10.930;2022-08-19T00:17:14;1235.05;;;999.90;;
31091;SDS011;17747;51.070;10.930;2022-08-19T00:18:14;1237.28;;;999.90;;
31091;SDS011;17747;51.070;10.930;2022-08-19T00:19:16;1238.13;;;999.90;;
31091;SDS011;17747;51.070;10.930;2022-08-19T00:20:17;1237.30;;;999.90;;
31091;SDS011;17747;51.070;10.930;2022-08-19T00:21:22;1235.03;;;999.90;;
31091;SDS011;17747;51.070;10.930;2022-08-19T00:22:23;1234.70;;;999.90;;
31091;SDS011;17747;51.070;10.930;2022-08-19T00:23:27;1235.47;;;999.90;;
31091;SDS011;17747;51.070;10.930;2022-08-19T00:24:27;1233.93;;;999.90;;
31091;SDS011;17747;51.070;10.930;2022-08-19T00:25:30;1235.70;;;999.90;;
31091;SDS011;17747;51.070;10.930;2022-08-19T00:26:30;1238.20;;;999.90;;
31091;SDS011;17747;51.070;10.930;2022-08-19T00:27:32;1235.22;;;999.90;;
31091;SDS011;17747;51.070;10.930;2022-08-19T00:28:32;1232.40;;;999.90;;
31091;SDS011;17747;51.070;10.930;2022-08-19T00:29:35;1236.72;;;999.90;;
31091;SDS011;17747;51.070;10.930;2022-08-19T00:30:36;1233.03;;;999.90;;
31091;SDS011;17747;51.070;10.930;2022-08-19T00:31:38;1237.47;;;999.90;;
31091;SDS011;17747;51.070;10.930;2022-08-19T00:32:39;1237.72;;;999.90;;
31091;SDS011;17747;51.070;10.930;2022-08-19T00:33:41;1236.18;;;999.90;;
31091;SDS011;17747;51.070;10.930;2022-08-19T00:34:41;1236.32;;;999.90;;
31091;SDS011;17747;51.070;10.930;2022-08-19T00:35:43;1235.38;;;999.90;;
31091;SDS011;17747;51.070;10.930;2022-08-19T00:36:45;1234.07;;;999.90;;
31091;SDS011;17747;51.070;10.930;2022-08-19T00:37:47;1234.60;;;999.90;;
31091;SDS011;17747;51.070;10.930;2022-08-19T00:38:49;1235.38;;;999.90;;
31091;SDS011;17747;51.070;10.930;2022-08-19T00:39:52;1234.43;;;999.90;;
31091;SDS011;17747;51.070;10.930;2022-08-19T00:40:55;1235.53;;;999.90;;
31091;SDS011;17747;51.070;10.930;2022-08-19T00:41:56;1235.10;;;999.90;;
31091;SDS011;17747;51.070;10.930;2022-08-19T00:42:57;1233.30;;;999.90;;
31091;SDS011;17747;51.070;10.930;2022-08-19T00:43:59;1233.20;;;999.90;;
31091;SDS011;17747;51.070;10.930;2022-08-19T00:45:02;1238.88;;;999.90;;
31091;SDS011;17747;51.070;10.930;2022-08-19T00:46:11;1239.45;;;999.90;;
31091;SDS011;17747;51.070;10.930;2022-08-19T00:47:13;1237.90;;;999.90;;
31091;SDS011;17747;51.070;10.930;2022-08-19T00:48:14;1237.30;;;999.90;;
31091;SDS011;17747;51.070;10.930;2022-08-19T00:49:17;1237.03;;;999.90;;
31091;SDS011;17747;51.070;10.930;2022-08-19T00:50:20;1234.90;;;999.90;;
31091;SDS011;17747;51.070;10.930;2022-08-19T00:51:22;1238.07;;;999.90;;
31091;SDS011;17747;51.070;10.930;2022-08-19T00:52:28;1238.25;;;999.90;;
31091;SDS011;17747;51.070;10.930;2022-08-19T00:53:33;1231.28;;;999.90;;
31091;SDS011;17747;51.070;10.930;2022-08-19T00:54:34;1234.25;;;999.90;;
31091;SDS011;17747;51.070;10.930;2022-08-19T00:55:37;1233.28;;;999.90;;
31091;SDS011;17747;51.070;10.930;2022-08-19T00:56:39;1233.38;;;999.90;;
31091;SDS011;17747;51.070;10.930;2022-08-19T00:57:43;1239.60;;;999.90;;
31091;SDS011;17747;51.070;10.930;2022-08-19T00:58:46;1234.95;;;999.90;;
31091;SDS011;17747;51.070;10.930;2022-08-19T00:59:48;1238.97;;;999.90;;
31091;SDS011;17747;51.070;10.930;2022-08-19T01:00:52;1236.68;;;999.90;;
31091;SDS011;17747;51.070;10.930;2022-08-19T01:01:54;1241.50;;;999.90;;
31091;SDS011;17747;51.070;10.930;2022-08-19T01:02:54;1242.13;;;999.90;;
31091;SDS011;17747;51.070;10.930;2022-08-19T01:03:56;1241.15;;;999.90;;
31091;SDS011;17747;51.070;10.930;2022-08-19T01:04:57;1241.57;;;999.90;;
31091;SDS011;17747;51.070;10.930;2022-08-19T01:06:01;1240.97;;;999.90;;
31091;SDS011;17747;51.070;10.930;2022-08-19T01:07:02;1240.03;;;999.90;;
31091;SDS011;17747;51.070;10.930;2022-08-19T01:08:05;1240.82;;;999.90;;
31091;SDS011;17747;51.070;10.930;2022-08-19T01:09:07;1239.75;;;999.90;;
31091;SDS011;17747;51.070;10.930;2022-08-19T01:10:11;1241.18;;;999.90;;
31091;SDS011;17747;51.070;10.930;2022-08-19T01:11:14;1240.57;;;999.90;;
31091;SDS011;17747;51.070;10.930;2022-08-19T01:12:15;1237.70;;;999.90;;
31091;SDS011;17747;51.070;10.930;2022-08-19T01:13:19;1241.82;;;999.90;;
31091;SDS011;17747;51.070;10.930;2022-08-19T01:14:22;1244.70;;;999.90;;
31091;SDS011;17747;51.070;10.930;2022-08-19T01:15:26;1241.68;;;999.90;;
31091;SDS011;17747;51.070;10.930;2022-08-19T01:16:31;1240.07;;;999.90;;
31091;SDS011;17747;51.070;10.930;2022-08-19T01:17:33;1239.70;;;999.90;;
31091;SDS011;17747;51.070;10.930;2022-08-19T01:18:39;1245.70;;;999.90;;
31091;SDS011;17747;51.070;10.930;2022-08-19T01:19:41;1240.03;;;999.90;;
31091;SDS011;17747;51.070;10.930;2022-08-19T01:20:44;1242.53;;;999.90;;
31091;SDS011;17747;51.070;10.930;2022-08-19T01:21:46;1242.18;;;999.90;;
31091;SDS011;17747;51.070;10.930;2022-08-19T01:22:55;1239.65;;;999.90;;
31091;SDS011;17747;51.070;10.930;2022-08-19T01:23:57;1239.43;;;999.90;;
31091;SDS011;17747;51.070;10.930;2022-08-19T01:24:59;1242.15;;;999.90;;
31091;SDS011;17747;51.070;10.930;2022-08-19T01:25:59;1239.45;;;999.90;;
31091;SDS011;17747;51.070;10.930;2022-08-19T01:27:03;1244.15;;;999.90;;
31091;SDS011;17747;51.070;10.930;2022-08-19T01:28:04;1242.75;;;999.90;;
31091;SDS011;17747;51.070;10.930;2022-08-19T01:29:06;1239.00;;;999.90;;
31091;SDS011;17747;51.070;10.930;2022-08-19T01:30:08;1240.55;;;999.90;;
31091;SDS011;17747;51.070;10.930;2022-08-19T01:31:12;1239.00;;;999.90;;
31091;SDS011;17747;51.070;10.930;2022-08-19T01:32:16;1240.00;;;999.90;;
31091;SDS011;17747;51.070;10.930;2022-08-19T01:33:17;1238.75;;;999.90;;
31091;SDS011;17747;51.070;10.930;2022-08-19T01:34:19;1240.53;;;999.90;;
31091;SDS011;17747;51.070;10.930;2022-08-19T01:35:20;1239.15;;;999.90;;
31091;SDS011;17747;51.070;10.930;2022-08-19T01:36:24;1237.63;;;999.90;;
31091;SDS011;17747;51.070;10.930;2022-08-19T01:37:27;1238.45;;;999.90;;
31091;SDS011;17747;51.070;10.930;2022-08-19T01:38:30;1232.38;;;999.90;;
31091;SDS011;17747;51.070;10.930;2022-08-19T01:39:31;1235.38;;;999.90;;
31091;SDS011;17747;51.070;10.930;2022-08-19T01:40:33;1237.18;;;999.90;;
31091;SDS011;17747;51.070;10.930;2022-08-19T01:41:35;1238.05;;;999.90;;
31091;SDS011;17747;51.070;10.930;2022-08-19T01:42:37;1235.63;;;999.90;;
31091;SDS011;17747;51.070;10.930;2022-08-19T01:43:38;1237.57;;;999.90;;
31091;SDS011;17747;51.070;10.930;2022-08-19T01:44:40;1240.28;;;999.90;;
31091;SDS011;17747;51.070;10.930;2022-08-19T01:45:41;1235.03;;;999.90;;
31091;SDS011;17747;51.070;10.930;2022-08-19T01:46:44;1239.28;;;999.90;;
31091;SDS011;17747;51.070;10.930;2022-08-19T01:47:45;1238.60;;;999.90;;
31091;SDS011;17747;51.070;10.930;2022-08-19T01:48:47;1236.90;;;999.90;;
31091;SDS011;17747;51.070;10.930;2022-08-19T01:49:47;1238.72;;;999.90;;
31091;SDS011;17747;51.070;10.930;2022-08-19T01:50:49;1238.65;;;999.90;;
31091;SDS011;17747;51.070;10.930;2022-08-19T01:51:49;1238.60;;;999.90;;
31091;SDS011;17747;51.070;10.930;2022-08-19T01:52:51;1240.82;;;999.90;;
31091;SDS011;17747;51.070;10.930;2022-08-19T01:53:53;1239.95;;;999.90;;
31091;SDS011;17747;51.070;10.930;2022-08-19T01:54:55;1239.28;;;999.90;;
31091;SDS011;17747;51.070;10.930;2022-08-19T01:55:56;1238.63;;;999.90;;
31091;SDS011;17747;51.070;10.930;2022-08-19T01:56:59;1236.72;;;999.90;;
31091;SDS011;17747;51.070;10.930;2022-08-19T01:58:03;1240.03;;;999.90;;
31091;SDS011;17747;51.070;10.930;2022-08-19T01:59:10;1233.68;;;999.90;;
31091;SDS011;17747;51.070;10.930;2022-08-19T02:00:13;1239.88;;;999.90;;
31091;SDS011;17747;51.070;10.930;2022-08-19T02:01:17;1232.70;;;999.90;;
31091;SDS011;17747;51.070;10.930;2022-08-19T02:02:19;1236.85;;;999.90;;
31091;SDS011;17747;51.070;10.930;2022-08-19T02:03:20;1234.97;;;999.90;;
31091;SDS011;17747;51.070;10.930;2022-08-19T02:04:21;1239.32;;;999.90;;
31091;SDS011;17747;51.070;10.930;2022-08-19T02:05:23;1237.07;;;999.90;;
31091;SDS011;17747;51.070;10.930;2022-08-19T02:06:24;1240.20;;;999.90;;
31091;SDS011;17747;51.070;10.930;2022-08-19T02:07:25;1236.97;;;999.90;;
31091;SDS011;17747;51.070;10.930;2022-08-19T02:08:27;1235.75;;;999.90;;
31091;SDS011;17747;51.070;10.930;2022-08-19T02:09:31;1231.15;;;999.90;;
31091;SDS011;17747;51.070;10.930;2022-08-19T02:10:33;1234.57;;;999.90;;
31091;SDS011;17747;51.070;10.930;2022-08-19T02:11:38;1233.35;;;999.90;;
31091;SDS011;17747;51.070;10.930;2022-08-19T02:12:40;1229.63;;;999.90;;
31091;SDS011;17747;51.070;10.930;2022-08-19T02:13:40;1231.90;;;999.90;;
31091;SDS011;17747;51.070;10.930;2022-08-19T02:14:42;1230.40;;;999.90;;
31091;SDS011;17747;51.070;10.930;2022-08-19T02:15:43;1231.60;;;999.90;;
31091;SDS011;17747;51.070;10.930;2022-08-19T02:16:45;1233.53;;;999.90;;
31091;SDS011;17747;51.070;10.930;2022-08-19T02:17:45;1230.05;;;999.90;;
31091;SDS011;17747;51.070;10.930;2022-08-19T02:18:48;1231.72;;;999.90;;
31091;SDS011;17747;51.070;10.930;2022-08-19T02:19:48;1232.00;;;999.90;;
31091;SDS011;17747;51.070;10.930;2022-08-19T02:20:50;1231.45;;;999.90;;
31091;SDS011;17747;51.070;10.930;2022-08-19T02:21:50;1237.65;;;999.90;;
31091;SDS011;17747;51.070;10.930;2022-08-19T02:22:52;1240.30;;;999.90;;
31091;SDS011;17747;51.070;10.930;2022-08-19T02:23:53;1235.78;;;999.90;;
31091;SDS011;17747;51.070;10.930;2022-08-19T02:24:56;1234.28;;;999.90;;
31091;SDS011;17747;51.070;10.930;2022-08-19T02:25:57;1235.25;;;999.90;;
31091;SDS011;17747;51.070;10.930;2022-08-19T02:26:58;1236.07;;;999.90;;
31091;SDS011;17747;51.070;10.930;2022-08-19T02:27:59;1238.78;;;999.90;;
31091;SDS011;17747;51.070;10.930;2022-08-19T02:29:00;1235.93;;;999.90;;
31091;SDS011;17747;51.070;10.930;2022-08-19T02:30:01;1238.40;;;999.90;;
31091;SDS011;17747;51.070;10.930;2022-08-19T02:31:03;1236.50;;;999.90;;
31091;SDS011;17747;51.070;10.930;2022-08-19T02:32:09;1237.30;;;999.90;;
31091;SDS011;17747;51.070;10.930;2022-08-19T02:33:18;1243.13;;;999.90;;
31091;SDS011;17747;51.070;10.930;2022-08-19T02:34:18;1238.78;;;999.90;;
31091;SDS011;17747;51.070;10.930;2022-08-19T02:35:20;1238.43;;;999.90;;
31091;SDS011;17747;51.070;10.930;2022-08-19T02:36:20;1238.47;;;999.90;;
31091;SDS011;17747;51.070;10.930;2022-08-19T02:37:22;1239.70;;;999.90;;
31091;SDS011;17747;51.070;10.930;2022-08-19T02:38:41;1238.88;;;999.90;;
31091;SDS011;17747;51.070;10.930;2022-08-19T02:39:43;1239.78;;;999.90;;
31091;SDS011;17747;51.070;10.930;2022-08-19T02:40:49;1239.30;;;999.90;;
31091;SDS011;17747;51.070;10.930;2022-08-19T02:41:52;1240.10;;;999.90;;
31091;SDS011;17747;51.070;10.930;2022-08-19T02:42:53;1239.55;;;999.90;;
31091;SDS011;17747;51.070;10.930;2022-08-19T02:43:55;1242.97;;;999.90;;
31091;SDS011;17747;51.070;10.930;2022-08-19T02:44:57;1239.32;;;999.90;;
31091;SDS011;17747;51.070;10.930;2022-08-19T02:45:58;1238.53;;;999.90;;
31091;SDS011;17747;51.070;10.930;2022-08-19T02:47:00;1239.63;;;999.90;;
31091;SDS011;17747;51.070;10.930;2022-08-19T02:48:00;1236.85;;;999.90;;
31091;SDS011;17747;51.070;10.930;2022-08-19T02:49:03;1237.25;;;999.90;;
31091;SDS011;17747;51.070;10.930;2022-08-19T02:50:06;1237.75;;;999.90;;
31091;SDS011;17747;51.070;10.930;2022-08-19T02:51:08;1244.10;;;999.90;;
31091;SDS011;17747;51.070;10.930;2022-08-19T02:52:09;1239.60;;;999.90;;
31091;SDS011;17747;51.070;10.930;2022-08-19T02:53:11;1241.25;;;999.90;;
31091;SDS011;17747;51.070;10.930;2022-08-19T02:54:12;1239.28;;;999.90;;
31091;SDS011;17747;51.070;10.930;2022-08-19T02:55:15;1237.82;;;999.90;;
31091;SDS011;17747;51.070;10.930;2022-08-19T02:56:17;1236.00;;;999.90;;
31091;SDS011;17747;51.070;10.930;2022-08-19T02:57:19;1235.93;;;999.90;;
31091;SDS011;17747;51.070;10.930;2022-08-19T02:58:19;1238.35;;;999.90;;
31091;SDS011;17747;51.070;10.930;2022-08-19T02:59:22;1238.18;;;999.90;;
31091;SDS011;17747;51.070;10.930;2022-08-19T03:00:24;1240.50;;;999.90;;
31091;SDS011;17747;51.070;10.930;2022-08-19T03:01:27;1242.20;;;999.90;;
31091;SDS011;17747;51.070;10.930;2022-08-19T03:02:28;1236.72;;;999.90;;
31091;SDS011;17747;51.070;10.930;2022-08-19T03:03:30;1239.90;;;999.90;;
31091;SDS011;17747;51.070;10.930;2022-08-19T03:04:31;1238.32;;;999.90;;
31091;SDS011;17747;51.070;10.930;2022-08-19T03:05:33;1236.25;;;999.90;;
31091;SDS011;17747;51.070;10.930;2022-08-19T03:06:35;1240.05;;;999.90;;
31091;SDS011;17747;51.070;10.930;2022-08-19T03:07:38;1239.90;;;999.90;;
31091;SDS011;17747;51.070;10.930;2022-08-19T03:08:38;1235.10;;;999.90;;
31091;SDS011;17747;51.070;10.930;2022-08-19T03:09:42;1239.20;;;999.90;;
31091;SDS011;17747;51.070;10.930;2022-08-19T03:10:43;1243.10;;;999.90;;
31091;SDS011;17747;51.070;10.930;2022-08-19T03:11:47;1242.82;;;999.90;;
31091;SDS011;17747;51.070;10.930;2022-08-19T03:12:48;1242.95;;;999.90;;
31091;SDS011;17747;51.070;10.930;2022-08-19T03:13:49;1245.22;;;999.90;;
31091;SDS011;17747;51.070;10.930;2022-08-19T03:14:51;1242.28;;;999.90;;
31091;SDS011;17747;51.070;10.930;2022-08-19T03:15:52;1244.45;;;999.90;;
31091;SDS011;17747;51.070;10.930;2022-08-19T03:16:53;1238.10;;;999.90;;
31091;SDS011;17747;51.070;10.930;2022-08-19T03:17:54;1243.63;;;999.90;;
31091;SDS011;17747;51.070;10.930;2022-08-19T03:18:56;1243.38;;;999.90;;
31091;SDS011;17747;51.070;10.930;2022-08-19T03:19:59;1237.75;;;999.90;;
31091;SDS011;17747;51.070;10.930;2022-08-19T03:21:00;1244.93;;;999.90;;
31091;SDS011;17747;51.070;10.930;2022-08-19T03:22:01;1243.65;;;999.90;;
31091;SDS011;17747;51.070;10.930;2022-08-19T03:23:04;1249.97;;;999.90;;
31091;SDS011;17747;51.070;10.930;2022-08-19T03:24:06;1245.32;;;999.90;;
31091;SDS011;17747;51.070;10.930;2022-08-19T03:25:08;1242.07;;;999.90;;
31091;SDS011;17747;51.070;10.930;2022-08-19T03:26:11;1240.85;;;999.90;;
31091;SDS011;17747;51.070;10.930;2022-08-19T03:27:14;1243.93;;;999.90;;
31091;SDS011;17747;51.070;10.930;2022-08-19T03:28:15;1241.85;;;999.90;;
31091;SDS011;17747;51.070;10.930;2022-08-19T03:29:17;1240.85;;;999.90;;
31091;SDS011;17747;51.070;10.930;2022-08-19T03:30:19;1242.38;;;999.90;;
31091;SDS011;17747;51.070;10.930;2022-08-19T03:31:20;1237.00;;;999.90;;
31091;SDS011;17747;51.070;10.930;2022-08-19T03:32:23;1237.88;;;999.90;;
31091;SDS011;17747;51.070;10.930;2022-08-19T03:33:24;1239.28;;;999.90;;
31091;SDS011;17747;51.070;10.930;2022-08-19T03:34:28;1238.30;;;999.90;;
31091;SDS011;17747;51.070;10.930;2022-08-19T03:35:30;1249.30;;;999.90;;
31091;SDS011;17747;51.070;10.930;2022-08-19T03:36:32;1249.10;;;999.90;;
31091;SDS011;17747;51.070;10.930;2022-08-19T03:37:33;1245.47;;;999.90;;
31091;SDS011;17747;51.070;10.930;2022-08-19T03:38:35;1250.13;;;999.90;;
31091;SDS011;17747;51.070;10.930;2022-08-19T03:39:38;1237.38;;;999.90;;
31091;SDS011;17747;51.070;10.930;2022-08-19T03:40:40;1240.68;;;999.90;;
31091;SDS011;17747;51.070;10.930;2022-08-19T03:41:43;1239.20;;;999.90;;
31091;SDS011;17747;51.070;10.930;2022-08-19T03:42:46;1239.00;;;999.90;;
31091;SDS011;17747;51.070;10.930;2022-08-19T03:43:49;1240.70;;;999.90;;
31091;SDS011;17747;51.070;10.930;2022-08-19T03:44:50;1238.65;;;999.90;;
31091;SDS011;17747;51.070;10.930;2022-08-19T03:45:59;1235.72;;;999.90;;
31091;SDS011;17747;51.070;10.930;2022-08-19T03:47:00;1238.60;;;999.90;;
31091;SDS011;17747;51.070;10.930;2022-08-19T03:48:02;1238.38;;;999.90;;
31091;SDS011;17747;51.070;10.930;2022-08-19T03:49:03;1239.82;;;999.90;;
31091;SDS011;17747;51.070;10.930;2022-08-19T03:50:07;1243.03;;;999.90;;
31091;SDS011;17747;51.070;10.930;2022-08-19T03:51:14;1239.10;;;999.90;;
31091;SDS011;17747;51.070;10.930;2022-08-19T03:52:17;1238.32;;;999.90;;
31091;SDS011;17747;51.070;10.930;2022-08-19T03:53:17;1239.25;;;999.90;;
31091;SDS011;17747;51.070;10.930;2022-08-19T03:54:20;1238.63;;;999.90;;
31091;SDS011;17747;51.070;10.930;2022-08-19T03:55:22;1240.75;;;999.90;;
31091;SDS011;17747;51.070;10.930;2022-08-19T03:56:24;1249.95;;;999.90;;
31091;SDS011;17747;51.070;10.930;2022-08-19T03:57:25;1241.15;;;999.90;;
31091;SDS011;17747;51.070;10.930;2022-08-19T03:58:29;1244.30;;;999.90;;
31091;SDS011;17747;51.070;10.930;2022-08-19T03:59:31;1243.40;;;999.90;;
31091;SDS011;17747;51.070;10.930;2022-08-19T04:00:34;1245.63;;;999.90;;
31091;SDS011;17747;51.070;10.930;2022-08-19T04:01:35;1242.57;;;999.90;;
31091;SDS011;17747;51.070;10.930;2022-08-19T04:02:37;1241.03;;;999.90;;
31091;SDS011;17747;51.070;10.930;2022-08-19T04:03:38;1242.78;;;999.90;;
31091;SDS011;17747;51.070;10.930;2022-08-19T04:04:41;1241.85;;;999.90;;
31091;SDS011;17747;51.070;10.930;2022-08-19T04:05:44;1244.47;;;999.90;;
31091;SDS011;17747;51.070;10.930;2022-08-19T04:06:46;1241.32;;;999.90;;
31091;SDS011;17747;51.070;10.930;2022-08-19T04:07:48;1237.53;;;999.90;;
31091;SDS011;17747;51.070;10.930;2022-08-19T04:08:50;1242.28;;;999.90;;
31091;SDS011;17747;51.070;10.930;2022-08-19T04:09:53;1238.68;;;999.90;;
31091;SDS011;17747;51.070;10.930;2022-08-19T04:10:54;1256.80;;;999.90;;
31091;SDS011;17747;51.070;10.930;2022-08-19T04:11:56;1254.95;;;999.90;;
31091;SDS011;17747;51.070;10.930;2022-08-19T04:12:57;1257.15;;;999.90;;
31091;SDS011;17747;51.070;10.930;2022-08-19T04:14:00;1241.80;;;999.90;;
31091;SDS011;17747;51.070;10.930;2022-08-19T04:15:00;1241.20;;;999.90;;
31091;SDS011;17747;51.070;10.930;2022-08-19T04:16:02;1238.85;;;999.90;;
31091;SDS011;17747;51.070;10.930;2022-08-19T04:17:04;1242.03;;;999.90;;
31091;SDS011;17747;51.070;10.930;2022-08-19T04:18:05;1240.72;;;999.90;;
31091;SDS011;17747;51.070;10.930;2022-08-19T04:19:07;1239.53;;;999.90;;
31091;SDS011;17747;51.070;10.930;2022-08-19T04:20:09;1254.95;;;999.90;;
31091;SDS011;17747;51.070;10.930;2022-08-19T04:21:14;1242.57;;;999.90;;
31091;SDS011;17747;51.070;10.930;2022-08-19T04:22:17;1235.78;;;999.90;;
31091;SDS011;17747;51.070;10.930;2022-08-19T04:23:18;1242.57;;;999.90;;
31091;SDS011;17747;51.070;10.930;2022-08-19T04:24:19;1262.63;;;999.90;;
31091;SDS011;17747;51.070;10.930;2022-08-19T04:25:21;1262.78;;;999.90;;
31091;SDS011;17747;51.070;10.930;2022-08-19T04:26:22;1264.50;;;999.90;;
31091;SDS011;17747;51.070;10.930;2022-08-19T04:27:27;1258.72;;;999.90;;
31091;SDS011;17747;51.070;10.930;2022-08-19T04:28:28;1254.55;;;999.90;;
31091;SDS011;17747;51.070;10.930;2022-08-19T04:29:31;1250.35;;;999.90;;
31091;SDS011;17747;51.070;10.930;2022-08-19T04:30:37;1255.25;;;999.90;;
31091;SDS011;17747;51.070;10.930;2022-08-19T04:31:39;1243.28;;;999.90;;
31091;SDS011;17747;51.070;10.930;2022-08-19T04:32:40;1246.82;;;999.90;;
31091;SDS011;17747;51.070;10.930;2022-08-19T04:33:43;1243.20;;;999.90;;
31091;SDS011;17747;51.070;10.930;2022-08-19T04:34:44;1245.50;;;999.90;;
31091;SDS011;17747;51.070;10.930;2022-08-19T04:35:46;1245.30;;;999.90;;
31091;SDS011;17747;51.070;10.930;2022-08-19T04:36:48;1246.38;;;999.90;;
31091;SDS011;17747;51.070;10.930;2022-08-19T04:37:51;1245.00;;;999.90;;
31091;SDS011;17747;51.070;10.930;2022-08-19T04:38:53;1243.50;;;999.90;;
31091;SDS011;17747;51.070;10.930;2022-08-19T04:39:55;1245.15;;;999.90;;
31091;SDS011;17747;51.070;10.930;2022-08-19T04:41:14;1242.63;;;999.90;;
31091;SDS011;17747;51.070;10.930;2022-08-19T04:42:30;1247.45;;;999.90;;
31091;SDS011;17747;51.070;10.930;2022-08-19T04:43:40;1248.55;;;999.90;;
31091;SDS011;17747;51.070;10.930;2022-08-19T04:44:42;1246.30;;;999.90;;
31091;SDS011;17747;51.070;10.930;2022-08-19T04:45:43;1243.75;;;999.90;;
31091;SDS011;17747;51.070;10.930;2022-08-19T04:46:45;1246.45;;;999.90;;
31091;SDS011;17747;51.070;10.930;2022-08-19T04:47:47;1244.60;;;999.90;;
31091;SDS011;17747;51.070;10.930;2022-08-19T04:48:48;1249.45;;;999.90;;
31091;SDS011;17747;51.070;10.930;2022-08-19T04:49:49;1250.15;;;999.90;;
31091;SDS011;17747;51.070;10.930;2022-08-19T04:50:51;1243.72;;;999.90;;
31091;SDS011;17747;51.070;10.930;2022-08-19T04:51:57;1245.03;;;999.90;;
31091;SDS011;17747;51.070;10.930;2022-08-19T04:52:58;1244.82;;;999.90;;
31091;SDS011;17747;51.070;10.930;2022-08-19T04:54:00;1246.50;;;999.90;;
31091;SDS011;17747;51.070;10.930;2022-08-19T04:55:02;1249.15;;;999.90;;
31091;SDS011;17747;51.070;10.930;2022-08-19T04:56:05;1257.38;;;999.90;;
31091;SDS011;17747;51.070;10.930;2022-08-19T04:57:09;1250.53;;;999.90;;
31091;SDS011;17747;51.070;10.930;2022-08-19T04:58:10;1245.75;;;999.90;;
31091;SDS011;17747;51.070;10.930;2022-08-19T04:59:11;1243.65;;;999.90;;
31091;SDS011;17747;51.070;10.930;2022-08-19T05:00:13;1249.72;;;999.90;;
31091;SDS011;17747;51.070;10.930;2022-08-19T05:01:17;1242.55;;;999.90;;
31091;SDS011;17747;51.070;10.930;2022-08-19T05:02:20;1242.68;;;999.90;;
31091;SDS011;17747;51.070;10.930;2022-08-19T05:03:23;1243.28;;;999.90;;
31091;SDS011;17747;51.070;10.930;2022-08-19T05:04:24;1246.25;;;999.90;;
31091;SDS011;17747;51.070;10.930;2022-08-19T05:05:25;1247.53;;;999.90;;
31091;SDS011;17747;51.070;10.930;2022-08-19T05:06:26;1247.53;;;999.90;;
31091;SDS011;17747;51.070;10.930;2022-08-19T05:07:28;1249.55;;;999.90;;
31091;SDS011;17747;51.070;10.930;2022-08-19T05:08:30;1248.90;;;999.90;;
31091;SDS011;17747;51.070;10.930;2022-08-19T05:09:31;1248.38;;;999.90;;
31091;SDS011;17747;51.070;10.930;2022-08-19T05:10:34;1249.43;;;999.90;;
31091;SDS011;17747;51.070;10.930;2022-08-19T05:11:36;1245.03;;;999.90;;
31091;SDS011;17747;51.070;10.930;2022-08-19T05:12:39;1248.85;;;999.90;;
31091;SDS011;17747;51.070;10.930;2022-08-19T05:13:40;1247.85;;;999.90;;
31091;SDS011;17747;51.070;10.930;2022-08-19T05:14:42;1246.45;;;999.90;;
31091;SDS011;17747;51.070;10.930;2022-08-19T05:15:44;1243.07;;;999.90;;
31091;SDS011;17747;51.070;10.930;2022-08-19T05:16:55;1241.88;;;999.90;;
31091;SDS011;17747;51.070;10.930;2022-08-19T05:17:55;1244.55;;;999.90;;
31091;SDS011;17747;51.070;10.930;2022-08-19T05:19:15;1245.85;;;999.90;;
31091;SDS011;17747;51.070;10.930;2022-08-19T05:20:33;1241.60;;;999.90;;
31091;SDS011;17747;51.070;10.930;2022-08-19T05:21:55;1242.53;;;999.90;;
31091;SDS011;17747;51.070;10.930;2022-08-19T05:23:14;1248.10;;;999.90;;
31091;SDS011;17747;51.070;10.930;2022-08-19T05:24:17;1244.93;;;999.90;;
31091;SDS011;17747;51.070;10.930;2022-08-19T05:25:18;1240.85;;;999.90;;
31091;SDS011;17747;51.070;10.930;2022-08-19T05:26:21;1243.35;;;999.90;;
31091;SDS011;17747;51.070;10.930;2022-08-19T05:27:22;1242.65;;;999.90;;
31091;SDS011;17747;51.070;10.930;2022-08-19T05:28:23;1243.63;;;999.90;;
31091;SDS011;17747;51.070;10.930;2022-08-19T05:29:25;1246.38;;;999.90;;
31091;SDS011;17747;51.070;10.930;2022-08-19T05:30:28;1240.30;;;999.90;;
31091;SDS011;17747;51.070;10.930;2022-08-19T05:31:30;1241.72;;;999.90;;
31091;SDS011;17747;51.070;10.930;2022-08-19T05:32:32;1245.35;;;999.90;;
31091;SDS011;17747;51.070;10.930;2022-08-19T05:33:33;1241.25;;;999.90;;
31091;SDS011;17747;51.070;10.930;2022-08-19T05:34:34;1240.43;;;999.90;;
31091;SDS011;17747;51.070;10.930;2022-08-19T05:35:35;1239.65;;;999.90;;
31091;SDS011;17747;51.070;10.930;2022-08-19T05:36:38;1245.50;;;999.90;;
31091;SDS011;17747;51.070;10.930;2022-08-19T05:37:40;1240.50;;;999.90;;
31091;SDS011;17747;51.070;10.930;2022-08-19T05:38:42;1241.20;;;999.90;;
31091;SDS011;17747;51.070;10.930;2022-08-19T05:39:42;1241.35;;;999.90;;
31091;SDS011;17747;51.070;10.930;2022-08-19T05:40:44;1239.13;;;999.90;;
31091;SDS011;17747;51.070;10.930;2022-08-19T05:41:47;1239.85;;;999.90;;
31091;SDS011;17747;51.070;10.930;2022-08-19T05:42:50;1240.15;;;999.90;;
31091;SDS011;17747;51.070;10.930;2022-08-19T05:43:53;1237.07;;;999.90;;
31091;SDS011;17747;51.070;10.930;2022-08-19T05:44:54;1241.68;;;999.90;;
31091;SDS011;17747;51.070;10.930;2022-08-19T05:45:56;1241.20;;;999.90;;